sensor_id;sensor_type;location;lat;lon;timestamp;P1;durP1;ratioP1;P2;durP2;ratioP2
44670;SDS011;48397;53.016;-2.260;2023-07-13T00:00:29;10.93;;;4.40;;
44670;SDS011;48397;53.016;-2.260;2023-07-13T00:02:59;11.93;;;4.53;;
44670;SDS011;48397;53.016;-2.260;2023-07-13T00:07:55;8.80;;;5.25;;
44670;SDS011;48397;53.016;-2.260;2023-07-13T00:10:22;11.43;;;5.18;;
44670;SDS011;48397;53.016;-2.260;2023-07-13T00:15:23;10.05;;;4.80;;
44670;SDS011;48397;53.016;-2.260;2023-07-13T00:17:52;11.75;;;5.43;;
44670;SDS011;48397;53.016;-2.260;2023-07-13T00:20:22;15.27;;;5.90;;
44670;SDS011;48397;53.016;-2.260;2023-07-13T00:22:52;14.63;;;5.20;;
44670;SDS011;48397;53.016;-2.260;2023-07-13T00:25:23;8.45;;;4.55;;
44670;SDS011;48397;53.016;-2.260;2023-07-13T00:27:53;11.10;;;4.70;;
44670;SDS011;48397;53.016;-2.260;2023-07-13T00:30:21;11.00;;;4.30;;
44670;SDS011;48397;53.016;-2.260;2023-07-13T00:32:50;9.27;;;4.70;;
44670;SDS011;48397;53.016;-2.260;2023-07-13T00:35:35;10.48;;;5.50;;
44670;SDS011;48397;53.016;-2.260;2023-07-13T00:38:02;13.60;;;5.20;;
44670;SDS011;48397;53.016;-2.260;2023-07-13T00:40:30;14.93;;;5.28;;
44670;SDS011;48397;53.016;-2.260;2023-07-13T00:42:58;11.07;;;5.38;;
44670;SDS011;48397;53.016;-2.260;2023-07-13T00:47:56;11.10;;;5.18;;
44670;SDS011;48397;53.016;-2.260;2023-07-13T00:50:25;11.57;;;5.15;;
44670;SDS011;48397;53.016;-2.260;2023-07-13T00:52:53;13.35;;;5.53;;
44670;SDS011;48397;53.016;-2.260;2023-07-13T00:55:25;10.13;;;4.68;;
44670;SDS011;48397;53.016;-2.260;2023-07-13T01:00:20;11.70;;;5.32;;
44670;SDS011;48397;53.016;-2.260;2023-07-13T01:02:50;11.75;;;4.32;;
44670;SDS011;48397;53.016;-2.260;2023-07-13T01:05:20;14.55;;;5.40;;
44670;SDS011;48397;53.016;-2.260;2023-07-13T01:07:50;13.40;;;5.40;;
44670;SDS011;48397;53.016;-2.260;2023-07-13T01:10:23;9.77;;;5.00;;
44670;SDS011;48397;53.016;-2.260;2023-07-13T01:12:52;11.00;;;4.70;;
44670;SDS011;48397;53.016;-2.260;2023-07-13T01:15:36;8.57;;;3.92;;
44670;SDS011;48397;53.016;-2.260;2023-07-13T01:18:14;8.20;;;4.22;;
44670;SDS011;48397;53.016;-2.260;2023-07-13T01:21:18;11.38;;;4.47;;
44670;SDS011;48397;53.016;-2.260;2023-07-13T01:23:40;12.38;;;4.32;;
44670;SDS011;48397;53.016;-2.260;2023-07-13T01:26:10;12.05;;;5.00;;
44670;SDS011;48397;53.016;-2.260;2023-07-13T01:28:39;12.05;;;4.65;;
44670;SDS011;48397;53.016;-2.260;2023-07-13T01:31:07;11.35;;;4.30;;
44670;SDS011;48397;53.016;-2.260;2023-07-13T01:33:37;11.10;;;4.30;;
44670;SDS011;48397;53.016;-2.260;2023-07-13T01:36:07;11.32;;;4.82;;
44670;SDS011;48397;53.016;-2.260;2023-07-13T01:38:37;8.95;;;4.55;;
44670;SDS011;48397;53.016;-2.260;2023-07-13T01:41:06;12.18;;;4.55;;
44670;SDS011;48397;53.016;-2.260;2023-07-13T01:43:35;11.55;;;5.00;;
44670;SDS011;48397;53.016;-2.260;2023-07-13T01:46:02;14.30;;;5.45;;
44670;SDS011;48397;53.016;-2.260;2023-07-13T01:48:50;14.57;;;5.80;;
44670;SDS011;48397;53.016;-2.260;2023-07-13T01:51:19;11.23;;;5.57;;
44670;SDS011;48397;53.016;-2.260;2023-07-13T01:53:48;9.75;;;5.05;;
44670;SDS011;48397;53.016;-2.260;2023-07-13T01:56:17;9.23;;;4.60;;
44670;SDS011;48397;53.016;-2.260;2023-07-13T01:58:46;10.95;;;5.13;;
44670;SDS011;48397;53.016;-2.260;2023-07-13T02:01:14;8.88;;;3.58;;
44670;SDS011;48397;53.016;-2.260;2023-07-13T02:06:09;9.48;;;4.55;;
44670;SDS011;48397;53.016;-2.260;2023-07-13T02:08:38;9.68;;;3.80;;
44670;SDS011;48397;53.016;-2.260;2023-07-13T02:11:06;5.43;;;3.50;;
44670;SDS011;48397;53.016;-2.260;2023-07-13T02:18:30;12.15;;;4.13;;
44670;SDS011;48397;53.016;-2.260;2023-07-13T02:23:25;7.85;;;4.13;;
44670;SDS011;48397;53.016;-2.260;2023-07-13T02:25:56;7.28;;;4.25;;
44670;SDS011;48397;53.016;-2.260;2023-07-13T02:28:24;10.60;;;4.40;;
44670;SDS011;48397;53.016;-2.260;2023-07-13T02:33:20;8.20;;;4.03;;
44670;SDS011;48397;53.016;-2.260;2023-07-13T02:38:15;8.93;;;4.35;;
44670;SDS011;48397;53.016;-2.260;2023-07-13T02:40:43;9.13;;;4.32;;
44670;SDS011;48397;53.016;-2.260;2023-07-13T02:43:13;9.27;;;4.50;;
44670;SDS011;48397;53.016;-2.260;2023-07-13T02:48:13;8.23;;;4.18;;
44670;SDS011;48397;53.016;-2.260;2023-07-13T02:50:41;9.52;;;4.30;;
44670;SDS011;48397;53.016;-2.260;2023-07-13T02:53:09;5.78;;;4.05;;
44670;SDS011;48397;53.016;-2.260;2023-07-13T02:55:37;7.90;;;3.90;;
44670;SDS011;48397;53.016;-2.260;2023-07-13T02:58:07;8.30;;;4.35;;
44670;SDS011;48397;53.016;-2.260;2023-07-13T03:00:37;8.32;;;4.57;;
44670;SDS011;48397;53.016;-2.260;2023-07-13T03:03:09;8.05;;;4.20;;
44670;SDS011;48397;53.016;-2.260;2023-07-13T03:05:37;11.07;;;4.63;;
44670;SDS011;48397;53.016;-2.260;2023-07-13T03:08:05;7.63;;;4.25;;
44670;SDS011;48397;53.016;-2.260;2023-07-13T03:10:34;6.10;;;3.90;;
44670;SDS011;48397;53.016;-2.260;2023-07-13T03:13:03;7.32;;;3.90;;
44670;SDS011;48397;53.016;-2.260;2023-07-13T03:17:58;6.40;;;4.72;;
44670;SDS011;48397;53.016;-2.260;2023-07-13T03:20:27;7.60;;;4.53;;
44670;SDS011;48397;53.016;-2.260;2023-07-13T03:22:55;9.13;;;4.47;;
44670;SDS011;48397;53.016;-2.260;2023-07-13T03:25:22;6.90;;;3.63;;
44670;SDS011;48397;53.016;-2.260;2023-07-13T03:27:50;9.35;;;4.35;;
44670;SDS011;48397;53.016;-2.260;2023-07-13T03:30:18;8.05;;;5.50;;
44670;SDS011;48397;53.016;-2.260;2023-07-13T03:32:46;9.85;;;4.82;;
44670;SDS011;48397;53.016;-2.260;2023-07-13T03:40:15;8.20;;;4.25;;
44670;SDS011;48397;53.016;-2.260;2023-07-13T03:42:45;9.57;;;4.25;;
44670;SDS011;48397;53.016;-2.260;2023-07-13T03:45:16;9.30;;;4.55;;
44670;SDS011;48397;53.016;-2.260;2023-07-13T03:47:44;10.45;;;4.80;;
44670;SDS011;48397;53.016;-2.260;2023-07-13T03:52:40;8.70;;;4.72;;
44670;SDS011;48397;53.016;-2.260;2023-07-13T03:55:08;5.97;;;4.13;;
44670;SDS011;48397;53.016;-2.260;2023-07-13T04:00:08;9.27;;;4.50;;
44670;SDS011;48397;53.016;-2.260;2023-07-13T04:02:41;10.95;;;5.60;;
44670;SDS011;48397;53.016;-2.260;2023-07-13T04:05:10;11.10;;;5.93;;
44670;SDS011;48397;53.016;-2.260;2023-07-13T04:15:01;12.73;;;6.03;;
44670;SDS011;48397;53.016;-2.260;2023-07-13T04:17:29;9.05;;;4.90;;
44670;SDS011;48397;53.016;-2.260;2023-07-13T04:19:57;10.20;;;5.63;;
44670;SDS011;48397;53.016;-2.260;2023-07-13T04:22:24;7.03;;;4.13;;
44670;SDS011;48397;53.016;-2.260;2023-07-13T04:24:52;9.20;;;4.65;;
44670;SDS011;48397;53.016;-2.260;2023-07-13T04:27:20;7.45;;;4.45;;
44670;SDS011;48397;53.016;-2.260;2023-07-13T04:29:51;7.28;;;4.57;;
44670;SDS011;48397;53.016;-2.260;2023-07-13T04:32:19;9.10;;;4.20;;
44670;SDS011;48397;53.016;-2.260;2023-07-13T04:34:47;8.80;;;4.50;;
44670;SDS011;48397;53.016;-2.260;2023-07-13T04:37:19;7.80;;;4.22;;
44670;SDS011;48397;53.016;-2.260;2023-07-13T04:39:47;12.05;;;4.60;;
44670;SDS011;48397;53.016;-2.260;2023-07-13T04:42:15;9.95;;;4.60;;
44670;SDS011;48397;53.016;-2.260;2023-07-13T04:47:15;9.02;;;4.63;;
44670;SDS011;48397;53.016;-2.260;2023-07-13T04:52:11;12.98;;;5.40;;
44670;SDS011;48397;53.016;-2.260;2023-07-13T04:54:39;11.40;;;5.65;;
44670;SDS011;48397;53.016;-2.260;2023-07-13T04:57:06;8.55;;;4.35;;
44670;SDS011;48397;53.016;-2.260;2023-07-13T05:02:02;7.72;;;5.03;;
44670;SDS011;48397;53.016;-2.260;2023-07-13T05:09:26;9.80;;;4.05;;
44670;SDS011;48397;53.016;-2.260;2023-07-13T05:14:22;6.65;;;4.22;;
44670;SDS011;48397;53.016;-2.260;2023-07-13T05:16:49;7.90;;;3.78;;
44670;SDS011;48397;53.016;-2.260;2023-07-13T05:19:17;11.93;;;4.60;;
44670;SDS011;48397;53.016;-2.260;2023-07-13T05:21:45;6.82;;;3.30;;
44670;SDS011;48397;53.016;-2.260;2023-07-13T05:24:13;6.15;;;3.55;;
44670;SDS011;48397;53.016;-2.260;2023-07-13T05:26:51;7.78;;;3.90;;
44670;SDS011;48397;53.016;-2.260;2023-07-13T05:29:20;8.68;;;4.25;;
44670;SDS011;48397;53.016;-2.260;2023-07-13T05:31:49;7.90;;;4.18;;
44670;SDS011;48397;53.016;-2.260;2023-07-13T05:34:17;9.05;;;4.13;;
44670;SDS011;48397;53.016;-2.260;2023-07-13T05:36:45;8.07;;;4.07;;
44670;SDS011;48397;53.016;-2.260;2023-07-13T05:39:13;6.78;;;3.95;;
44670;SDS011;48397;53.016;-2.260;2023-07-13T05:41:41;6.25;;;3.92;;
44670;SDS011;48397;53.016;-2.260;2023-07-13T05:46:36;5.93;;;4.38;;
44670;SDS011;48397;53.016;-2.260;2023-07-13T05:49:04;9.57;;;4.38;;
44670;SDS011;48397;53.016;-2.260;2023-07-13T05:54:00;5.22;;;3.35;;
44670;SDS011;48397;53.016;-2.260;2023-07-13T05:56:27;7.43;;;3.55;;
44670;SDS011;48397;53.016;-2.260;2023-07-13T05:58:56;5.93;;;3.30;;
44670;SDS011;48397;53.016;-2.260;2023-07-13T06:01:23;5.53;;;3.05;;
44670;SDS011;48397;53.016;-2.260;2023-07-13T06:03:51;5.05;;;2.63;;
44670;SDS011;48397;53.016;-2.260;2023-07-13T06:06:19;3.58;;;2.20;;
44670;SDS011;48397;53.016;-2.260;2023-07-13T06:08:47;5.30;;;2.80;;
44670;SDS011;48397;53.016;-2.260;2023-07-13T06:11:19;6.18;;;2.47;;
44670;SDS011;48397;53.016;-2.260;2023-07-13T06:13:49;7.68;;;2.72;;
44670;SDS011;48397;53.016;-2.260;2023-07-13T06:16:17;4.57;;;2.20;;
44670;SDS011;48397;53.016;-2.260;2023-07-13T06:18:46;6.65;;;2.03;;
44670;SDS011;48397;53.016;-2.260;2023-07-13T06:21:15;6.20;;;3.47;;
44670;SDS011;48397;53.016;-2.260;2023-07-13T06:23:44;7.88;;;2.10;;
44670;SDS011;48397;53.016;-2.260;2023-07-13T06:26:14;5.50;;;2.30;;
44670;SDS011;48397;53.016;-2.260;2023-07-13T06:28:43;9.05;;;2.20;;
44670;SDS011;48397;53.016;-2.260;2023-07-13T06:31:12;7.05;;;2.42;;
44670;SDS011;48397;53.016;-2.260;2023-07-13T06:33:41;5.07;;;2.30;;
44670;SDS011;48397;53.016;-2.260;2023-07-13T06:36:11;4.70;;;2.10;;
44670;SDS011;48397;53.016;-2.260;2023-07-13T06:38:39;3.50;;;1.80;;
44670;SDS011;48397;53.016;-2.260;2023-07-13T06:41:07;3.40;;;1.90;;
44670;SDS011;48397;53.016;-2.260;2023-07-13T06:43:36;5.63;;;1.98;;
44670;SDS011;48397;53.016;-2.260;2023-07-13T06:46:04;4.15;;;1.83;;
44670;SDS011;48397;53.016;-2.260;2023-07-13T06:48:32;3.65;;;1.73;;
44670;SDS011;48397;53.016;-2.260;2023-07-13T06:51:01;4.28;;;1.63;;
44670;SDS011;48397;53.016;-2.260;2023-07-13T06:53:30;7.95;;;2.30;;
44670;SDS011;48397;53.016;-2.260;2023-07-13T06:55:57;7.95;;;2.03;;
44670;SDS011;48397;53.016;-2.260;2023-07-13T06:58:25;2.72;;;1.05;;
44670;SDS011;48397;53.016;-2.260;2023-07-13T07:00:53;6.63;;;2.00;;
44670;SDS011;48397;53.016;-2.260;2023-07-13T07:05:49;3.33;;;2.03;;
44670;SDS011;48397;53.016;-2.260;2023-07-13T07:08:17;3.72;;;1.70;;
44670;SDS011;48397;53.016;-2.260;2023-07-13T07:10:44;4.90;;;2.05;;
44670;SDS011;48397;53.016;-2.260;2023-07-13T07:13:13;5.65;;;2.08;;
44670;SDS011;48397;53.016;-2.260;2023-07-13T07:15:41;4.85;;;1.20;;
44670;SDS011;48397;53.016;-2.260;2023-07-13T07:18:09;2.95;;;1.42;;
44670;SDS011;48397;53.016;-2.260;2023-07-13T07:20:36;4.03;;;2.00;;
44670;SDS011;48397;53.016;-2.260;2023-07-13T07:23:05;3.53;;;2.00;;
44670;SDS011;48397;53.016;-2.260;2023-07-13T07:25:33;3.90;;;1.80;;
44670;SDS011;48397;53.016;-2.260;2023-07-13T07:28:04;7.35;;;2.55;;
44670;SDS011;48397;53.016;-2.260;2023-07-13T07:30:34;5.30;;;2.40;;
44670;SDS011;48397;53.016;-2.260;2023-07-13T07:33:05;3.88;;;2.47;;
44670;SDS011;48397;53.016;-2.260;2023-07-13T07:35:33;4.10;;;2.47;;
44670;SDS011;48397;53.016;-2.260;2023-07-13T07:38:05;4.35;;;2.58;;
44670;SDS011;48397;53.016;-2.260;2023-07-13T07:43:10;6.72;;;2.28;;
44670;SDS011;48397;53.016;-2.260;2023-07-13T07:45:39;4.63;;;2.22;;
44670;SDS011;48397;53.016;-2.260;2023-07-13T07:48:07;5.65;;;2.17;;
44670;SDS011;48397;53.016;-2.260;2023-07-13T07:50:36;14.07;;;2.90;;
44670;SDS011;48397;53.016;-2.260;2023-07-13T07:53:06;4.25;;;2.63;;
44670;SDS011;48397;53.016;-2.260;2023-07-13T07:55:34;10.05;;;2.78;;
44670;SDS011;48397;53.016;-2.260;2023-07-13T07:58:06;9.82;;;3.28;;
44670;SDS011;48397;53.016;-2.260;2023-07-13T08:01:01;6.03;;;3.05;;
44670;SDS011;48397;53.016;-2.260;2023-07-13T08:03:32;6.32;;;2.90;;
44670;SDS011;48397;53.016;-2.260;2023-07-13T08:06:03;7.53;;;2.20;;
44670;SDS011;48397;53.016;-2.260;2023-07-13T08:08:34;5.45;;;2.42;;
44670;SDS011;48397;53.016;-2.260;2023-07-13T08:11:04;6.32;;;2.88;;
44670;SDS011;48397;53.016;-2.260;2023-07-13T08:13:53;4.90;;;2.70;;
44670;SDS011;48397;53.016;-2.260;2023-07-13T08:16:22;6.70;;;2.47;;
44670;SDS011;48397;53.016;-2.260;2023-07-13T08:18:50;12.43;;;3.55;;
44670;SDS011;48397;53.016;-2.260;2023-07-13T08:21:18;11.93;;;3.13;;
44670;SDS011;48397;53.016;-2.260;2023-07-13T08:23:49;6.43;;;2.72;;
44670;SDS011;48397;53.016;-2.260;2023-07-13T08:26:17;8.15;;;2.33;;
44670;SDS011;48397;53.016;-2.260;2023-07-13T08:31:12;5.32;;;2.08;;
44670;SDS011;48397;53.016;-2.260;2023-07-13T08:33:41;4.55;;;2.50;;
44670;SDS011;48397;53.016;-2.260;2023-07-13T08:36:09;4.85;;;2.38;;
44670;SDS011;48397;53.016;-2.260;2023-07-13T08:38:37;4.60;;;1.88;;
44670;SDS011;48397;53.016;-2.260;2023-07-13T08:41:15;2.92;;;1.40;;
44670;SDS011;48397;53.016;-2.260;2023-07-13T08:43:45;4.50;;;1.67;;
44670;SDS011;48397;53.016;-2.260;2023-07-13T08:46:20;3.35;;;1.65;;
44670;SDS011;48397;53.016;-2.260;2023-07-13T08:48:56;3.10;;;2.00;;
44670;SDS011;48397;53.016;-2.260;2023-07-13T08:51:35;5.38;;;1.90;;
44670;SDS011;48397;53.016;-2.260;2023-07-13T08:54:17;9.77;;;2.28;;
44670;SDS011;48397;53.016;-2.260;2023-07-13T08:57:00;8.45;;;2.63;;
44670;SDS011;48397;53.016;-2.260;2023-07-13T08:59:41;8.20;;;2.60;;
44670;SDS011;48397;53.016;-2.260;2023-07-13T09:07:27;3.92;;;1.80;;
44670;SDS011;48397;53.016;-2.260;2023-07-13T09:15:32;2.50;;;1.65;;
44670;SDS011;48397;53.016;-2.260;2023-07-13T09:20:52;3.03;;;1.77;;
44670;SDS011;48397;53.016;-2.260;2023-07-13T09:23:32;3.60;;;1.70;;
44670;SDS011;48397;53.016;-2.260;2023-07-13T09:26:03;4.28;;;1.75;;
44670;SDS011;48397;53.016;-2.260;2023-07-13T09:28:41;5.28;;;1.40;;
44670;SDS011;48397;53.016;-2.260;2023-07-13T09:33:40;2.40;;;1.88;;
44670;SDS011;48397;53.016;-2.260;2023-07-13T09:36:19;5.75;;;1.67;;
44670;SDS011;48397;53.016;-2.260;2023-07-13T09:44:36;7.40;;;2.08;;
44670;SDS011;48397;53.016;-2.260;2023-07-13T09:47:19;3.58;;;1.80;;
44670;SDS011;48397;53.016;-2.260;2023-07-13T09:49:55;8.18;;;2.20;;
44670;SDS011;48397;53.016;-2.260;2023-07-13T09:52:46;4.75;;;1.98;;
44670;SDS011;48397;53.016;-2.260;2023-07-13T09:55:25;8.40;;;1.83;;
44670;SDS011;48397;53.016;-2.260;2023-07-13T09:58:08;6.50;;;1.90;;
44670;SDS011;48397;53.016;-2.260;2023-07-13T10:00:42;1.70;;;1.17;;
44670;SDS011;48397;53.016;-2.260;2023-07-13T10:03:21;1.38;;;0.98;;
44670;SDS011;48397;53.016;-2.260;2023-07-13T10:05:51;4.82;;;1.70;;
44670;SDS011;48397;53.016;-2.260;2023-07-13T10:08:25;2.42;;;1.40;;
44670;SDS011;48397;53.016;-2.260;2023-07-13T10:10:59;5.72;;;2.25;;
44670;SDS011;48397;53.016;-2.260;2023-07-13T10:13:36;5.85;;;1.80;;
44670;SDS011;48397;53.016;-2.260;2023-07-13T10:16:08;3.58;;;1.73;;
44670;SDS011;48397;53.016;-2.260;2023-07-13T10:21:19;12.38;;;2.55;;
44670;SDS011;48397;53.016;-2.260;2023-07-13T10:23:53;7.38;;;2.28;;
44670;SDS011;48397;53.016;-2.260;2023-07-13T10:26:26;5.95;;;1.95;;
44670;SDS011;48397;53.016;-2.260;2023-07-13T10:29:00;3.92;;;1.92;;
44670;SDS011;48397;53.016;-2.260;2023-07-13T10:31:34;6.72;;;1.90;;
44670;SDS011;48397;53.016;-2.260;2023-07-13T10:34:09;2.70;;;1.70;;
44670;SDS011;48397;53.016;-2.260;2023-07-13T10:36:43;6.43;;;2.20;;
44670;SDS011;48397;53.016;-2.260;2023-07-13T10:39:14;9.48;;;2.28;;
44670;SDS011;48397;53.016;-2.260;2023-07-13T10:41:50;2.03;;;1.10;;
44670;SDS011;48397;53.016;-2.260;2023-07-13T10:44:27;3.97;;;1.90;;
44670;SDS011;48397;53.016;-2.260;2023-07-13T10:47:00;2.88;;;1.65;;
44670;SDS011;48397;53.016;-2.260;2023-07-13T10:49:34;2.13;;;1.40;;
44670;SDS011;48397;53.016;-2.260;2023-07-13T10:52:04;6.13;;;1.92;;
44670;SDS011;48397;53.016;-2.260;2023-07-13T10:54:33;4.15;;;1.83;;
44670;SDS011;48397;53.016;-2.260;2023-07-13T10:57:13;2.10;;;1.30;;
44670;SDS011;48397;53.016;-2.260;2023-07-13T10:59:48;2.08;;;1.40;;
44670;SDS011;48397;53.016;-2.260;2023-07-13T11:02:36;3.67;;;1.58;;
44670;SDS011;48397;53.016;-2.260;2023-07-13T11:08:03;5.35;;;1.45;;
44670;SDS011;48397;53.016;-2.260;2023-07-13T11:10:48;3.40;;;1.70;;
44670;SDS011;48397;53.016;-2.260;2023-07-13T11:18:47;10.25;;;2.22;;
44670;SDS011;48397;53.016;-2.260;2023-07-13T11:24:02;10.52;;;1.85;;
44670;SDS011;48397;53.016;-2.260;2023-07-13T11:31:51;4.25;;;1.60;;
44670;SDS011;48397;53.016;-2.260;2023-07-13T11:34:23;24.50;;;3.40;;
44670;SDS011;48397;53.016;-2.260;2023-07-13T11:36:59;4.25;;;1.60;;
44670;SDS011;48397;53.016;-2.260;2023-07-13T11:39:31;9.18;;;2.08;;
44670;SDS011;48397;53.016;-2.260;2023-07-13T11:42:03;16.88;;;3.10;;
44670;SDS011;48397;53.016;-2.260;2023-07-13T11:44:41;5.85;;;2.20;;
44670;SDS011;48397;53.016;-2.260;2023-07-13T11:47:30;3.85;;;1.88;;
44670;SDS011;48397;53.016;-2.260;2023-07-13T11:49:58;4.85;;;2.17;;
44670;SDS011;48397;53.016;-2.260;2023-07-13T11:52:29;2.70;;;1.33;;
44670;SDS011;48397;53.016;-2.260;2023-07-13T11:55:02;4.35;;;2.00;;
44670;SDS011;48397;53.016;-2.260;2023-07-13T11:57:44;3.40;;;1.80;;
44670;SDS011;48397;53.016;-2.260;2023-07-13T12:00:21;5.22;;;1.90;;
44670;SDS011;48397;53.016;-2.260;2023-07-13T12:02:52;4.38;;;1.70;;
44670;SDS011;48397;53.016;-2.260;2023-07-13T12:05:22;5.20;;;2.17;;
44670;SDS011;48397;53.016;-2.260;2023-07-13T12:07:52;3.75;;;2.00;;
44670;SDS011;48397;53.016;-2.260;2023-07-13T12:10:22;2.55;;;1.80;;
44670;SDS011;48397;53.016;-2.260;2023-07-13T12:12:52;3.85;;;2.00;;
44670;SDS011;48397;53.016;-2.260;2023-07-13T12:15:22;6.00;;;2.10;;
44670;SDS011;48397;53.016;-2.260;2023-07-13T12:17:55;3.45;;;1.83;;
44670;SDS011;48397;53.016;-2.260;2023-07-13T12:20:24;4.72;;;1.80;;
44670;SDS011;48397;53.016;-2.260;2023-07-13T12:22:54;4.55;;;2.28;;
44670;SDS011;48397;53.016;-2.260;2023-07-13T12:25:22;6.68;;;2.53;;
44670;SDS011;48397;53.016;-2.260;2023-07-13T12:27:51;9.25;;;2.85;;
44670;SDS011;48397;53.016;-2.260;2023-07-13T12:30:24;4.57;;;1.50;;
44670;SDS011;48397;53.016;-2.260;2023-07-13T12:32:59;5.05;;;2.20;;
44670;SDS011;48397;53.016;-2.260;2023-07-13T12:35:29;3.85;;;2.08;;
44670;SDS011;48397;53.016;-2.260;2023-07-13T12:37:57;3.83;;;1.90;;
44670;SDS011;48397;53.016;-2.260;2023-07-13T12:40:34;4.32;;;2.33;;
44670;SDS011;48397;53.016;-2.260;2023-07-13T12:43:03;3.63;;;2.28;;
44670;SDS011;48397;53.016;-2.260;2023-07-13T12:45:33;3.97;;;1.75;;
44670;SDS011;48397;53.016;-2.260;2023-07-13T12:48:06;4.35;;;2.20;;
44670;SDS011;48397;53.016;-2.260;2023-07-13T12:50:47;3.50;;;1.70;;
44670;SDS011;48397;53.016;-2.260;2023-07-13T12:53:19;2.45;;;1.60;;
44670;SDS011;48397;53.016;-2.260;2023-07-13T12:55:55;3.25;;;1.65;;
44670;SDS011;48397;53.016;-2.260;2023-07-13T12:58:30;4.20;;;1.90;;
44670;SDS011;48397;53.016;-2.260;2023-07-13T13:01:03;2.40;;;1.50;;
44670;SDS011;48397;53.016;-2.260;2023-07-13T13:03:34;2.55;;;1.70;;
44670;SDS011;48397;53.016;-2.260;2023-07-13T13:08:46;2.95;;;1.75;;
44670;SDS011;48397;53.016;-2.260;2023-07-13T13:11:16;3.40;;;2.00;;
44670;SDS011;48397;53.016;-2.260;2023-07-13T13:13:50;7.45;;;2.40;;
44670;SDS011;48397;53.016;-2.260;2023-07-13T13:17:01;5.13;;;2.60;;
44670;SDS011;48397;53.016;-2.260;2023-07-13T13:19:17;5.60;;;2.58;;
44670;SDS011;48397;53.016;-2.260;2023-07-13T13:21:48;9.43;;;2.80;;
44670;SDS011;48397;53.016;-2.260;2023-07-13T13:24:21;4.75;;;2.38;;
44670;SDS011;48397;53.016;-2.260;2023-07-13T13:26:50;7.25;;;2.53;;
44670;SDS011;48397;53.016;-2.260;2023-07-13T13:29:20;11.63;;;3.50;;
44670;SDS011;48397;53.016;-2.260;2023-07-13T13:31:52;6.20;;;2.13;;
44670;SDS011;48397;53.016;-2.260;2023-07-13T13:34:21;4.65;;;2.10;;
44670;SDS011;48397;53.016;-2.260;2023-07-13T13:36:52;4.55;;;2.00;;
44670;SDS011;48397;53.016;-2.260;2023-07-13T13:39:35;4.20;;;2.30;;
44670;SDS011;48397;53.016;-2.260;2023-07-13T13:42:04;7.40;;;2.67;;
44670;SDS011;48397;53.016;-2.260;2023-07-13T13:44:32;3.60;;;2.10;;
44670;SDS011;48397;53.016;-2.260;2023-07-13T13:49:29;4.07;;;2.00;;
44670;SDS011;48397;53.016;-2.260;2023-07-13T13:51:57;6.70;;;2.10;;
44670;SDS011;48397;53.016;-2.260;2023-07-13T13:54:26;5.43;;;1.85;;
44670;SDS011;48397;53.016;-2.260;2023-07-13T13:56:54;3.50;;;1.90;;
44670;SDS011;48397;53.016;-2.260;2023-07-13T13:59:23;4.63;;;2.03;;
44670;SDS011;48397;53.016;-2.260;2023-07-13T14:01:50;4.75;;;2.13;;
44670;SDS011;48397;53.016;-2.260;2023-07-13T14:04:20;3.05;;;1.80;;
44670;SDS011;48397;53.016;-2.260;2023-07-13T14:06:49;9.88;;;2.20;;
44670;SDS011;48397;53.016;-2.260;2023-07-13T14:09:18;5.03;;;1.80;;
44670;SDS011;48397;53.016;-2.260;2023-07-13T14:11:47;4.95;;;2.00;;
44670;SDS011;48397;53.016;-2.260;2023-07-13T14:14:21;6.03;;;2.10;;
44670;SDS011;48397;53.016;-2.260;2023-07-13T14:16:50;3.75;;;1.92;;
44670;SDS011;48397;53.016;-2.260;2023-07-13T14:19:22;9.10;;;2.33;;
44670;SDS011;48397;53.016;-2.260;2023-07-13T14:21:51;6.22;;;2.25;;
44670;SDS011;48397;53.016;-2.260;2023-07-13T14:24:21;3.88;;;1.92;;
44670;SDS011;48397;53.016;-2.260;2023-07-13T14:26:49;2.88;;;1.40;;
44670;SDS011;48397;53.016;-2.260;2023-07-13T14:29:18;12.65;;;2.60;;
44670;SDS011;48397;53.016;-2.260;2023-07-13T14:31:51;3.55;;;1.90;;
44670;SDS011;48397;53.016;-2.260;2023-07-13T14:34:19;9.10;;;2.60;;
44670;SDS011;48397;53.016;-2.260;2023-07-13T14:36:48;4.18;;;1.90;;
44670;SDS011;48397;53.016;-2.260;2023-07-13T14:39:21;5.25;;;2.05;;
44670;SDS011;48397;53.016;-2.260;2023-07-13T14:41:53;4.53;;;2.20;;
44670;SDS011;48397;53.016;-2.260;2023-07-13T14:44:24;7.25;;;2.20;;
44670;SDS011;48397;53.016;-2.260;2023-07-13T14:46:56;6.82;;;2.10;;
44670;SDS011;48397;53.016;-2.260;2023-07-13T14:49:37;3.15;;;1.80;;
44670;SDS011;48397;53.016;-2.260;2023-07-13T14:52:14;3.38;;;1.98;;
44670;SDS011;48397;53.016;-2.260;2023-07-13T14:54:44;4.30;;;2.15;;
44670;SDS011;48397;53.016;-2.260;2023-07-13T14:57:13;5.45;;;2.30;;
44670;SDS011;48397;53.016;-2.260;2023-07-13T14:59:42;3.88;;;2.03;;
44670;SDS011;48397;53.016;-2.260;2023-07-13T15:02:17;4.03;;;2.25;;
44670;SDS011;48397;53.016;-2.260;2023-07-13T15:04:56;5.25;;;2.35;;
44670;SDS011;48397;53.016;-2.260;2023-07-13T15:07:24;3.25;;;1.63;;
44670;SDS011;48397;53.016;-2.260;2023-07-13T15:12:20;4.28;;;1.73;;
44670;SDS011;48397;53.016;-2.260;2023-07-13T15:14:48;3.47;;;1.70;;
44670;SDS011;48397;53.016;-2.260;2023-07-13T15:17:24;4.82;;;2.10;;
44670;SDS011;48397;53.016;-2.260;2023-07-13T15:19:57;12.43;;;2.22;;
44670;SDS011;48397;53.016;-2.260;2023-07-13T15:22:26;3.90;;;1.95;;
44670;SDS011;48397;53.016;-2.260;2023-07-13T15:24:54;4.00;;;2.30;;
44670;SDS011;48397;53.016;-2.260;2023-07-13T15:27:26;3.63;;;1.63;;
44670;SDS011;48397;53.016;-2.260;2023-07-13T15:29:54;3.78;;;1.80;;
44670;SDS011;48397;53.016;-2.260;2023-07-13T15:32:22;3.85;;;1.85;;
44670;SDS011;48397;53.016;-2.260;2023-07-13T15:34:50;5.00;;;2.00;;
44670;SDS011;48397;53.016;-2.260;2023-07-13T15:37:18;5.05;;;2.83;;
44670;SDS011;48397;53.016;-2.260;2023-07-13T15:39:47;5.15;;;2.10;;
44670;SDS011;48397;53.016;-2.260;2023-07-13T15:44:43;3.75;;;1.95;;
44670;SDS011;48397;53.016;-2.260;2023-07-13T15:47:12;4.03;;;2.10;;
44670;SDS011;48397;53.016;-2.260;2023-07-13T15:49:42;3.35;;;1.63;;
44670;SDS011;48397;53.016;-2.260;2023-07-13T15:52:16;2.67;;;1.77;;
44670;SDS011;48397;53.016;-2.260;2023-07-13T15:54:46;5.53;;;1.73;;
44670;SDS011;48397;53.016;-2.260;2023-07-13T15:57:15;5.72;;;2.28;;
44670;SDS011;48397;53.016;-2.260;2023-07-13T15:59:43;4.40;;;1.95;;
44670;SDS011;48397;53.016;-2.260;2023-07-13T16:02:13;3.10;;;1.75;;
44670;SDS011;48397;53.016;-2.260;2023-07-13T16:04:45;3.05;;;1.50;;
44670;SDS011;48397;53.016;-2.260;2023-07-13T16:07:15;4.97;;;2.13;;
44670;SDS011;48397;53.016;-2.260;2023-07-13T16:09:48;2.38;;;1.50;;
44670;SDS011;48397;53.016;-2.260;2023-07-13T16:12:17;3.67;;;1.90;;
44670;SDS011;48397;53.016;-2.260;2023-07-13T16:17:12;3.90;;;1.80;;
44670;SDS011;48397;53.016;-2.260;2023-07-13T16:19:41;4.20;;;2.00;;
44670;SDS011;48397;53.016;-2.260;2023-07-13T16:22:14;2.88;;;1.70;;
44670;SDS011;48397;53.016;-2.260;2023-07-13T16:24:45;8.73;;;2.05;;
44670;SDS011;48397;53.016;-2.260;2023-07-13T16:27:13;4.60;;;2.10;;
44670;SDS011;48397;53.016;-2.260;2023-07-13T16:29:41;3.20;;;1.67;;
44670;SDS011;48397;53.016;-2.260;2023-07-13T16:34:39;2.90;;;1.90;;
44670;SDS011;48397;53.016;-2.260;2023-07-13T16:37:28;6.57;;;2.17;;
44670;SDS011;48397;53.016;-2.260;2023-07-13T16:39:57;3.85;;;1.95;;
44670;SDS011;48397;53.016;-2.260;2023-07-13T16:42:28;5.75;;;2.10;;
44670;SDS011;48397;53.016;-2.260;2023-07-13T16:44:57;4.70;;;1.92;;
44670;SDS011;48397;53.016;-2.260;2023-07-13T16:47:27;3.60;;;1.90;;
44670;SDS011;48397;53.016;-2.260;2023-07-13T16:50:02;6.70;;;1.92;;
44670;SDS011;48397;53.016;-2.260;2023-07-13T16:52:37;4.72;;;2.15;;
44670;SDS011;48397;53.016;-2.260;2023-07-13T16:55:05;5.38;;;2.08;;
44670;SDS011;48397;53.016;-2.260;2023-07-13T16:57:36;4.53;;;2.55;;
44670;SDS011;48397;53.016;-2.260;2023-07-13T17:00:08;5.82;;;2.30;;
44670;SDS011;48397;53.016;-2.260;2023-07-13T17:03:04;4.03;;;2.03;;
44670;SDS011;48397;53.016;-2.260;2023-07-13T17:05:37;4.95;;;2.30;;